Time,TemperatureF,DewpointF,PressureIn,WindDirection,WindDirectionDegrees,WindSpeedMPH,WindSpeedGustMPH,Humidity,HourlyPrecipIn,Conditions,Clouds,dailyrainin,SoftwareType,DateUTC
2013-01-22 00:00:00,12.5,0.0,30.05,NW,325,4.8,12.7,0,0.00,,---,0.00,VWS V14.00,2013-01-22 05:00:00,
2013-01-22 00:01:00,12.4,0.0,30.05,West,280,7.2,12.7,0,0.00,,---,0.00,VWS V14.00,2013-01-22 05:01:00,
2013-01-22 00:02:00,12.4,0.0,30.05,West,278,4.1,12.7,0,0.00,,---,0.00,VWS V14.00,2013-01-22 05:02:00,
2013-01-22 00:03:00,23.1,0.0,29.77,WNW,298,0.0,0.0,0,0.00,,---,0.00,VWS V14.00,2013-01-22 05:03:00,
2013-01-22 00:04:00,12.4,0.0,30.05,NW,307,0.0,12.7,0,0.00,,---,0.00,VWS V14.00,2013-01-22 05:04:00,
2013-01-22 00:05:00,12.4,0.0,30.05,WNW,291,5.1,9.7,0,0.00,,---,0.00,VWS V14.00,2013-01-22 05:05:00,
2013-01-22 00:06:00,12.4,0.0,30.05,NW,314,0.0,9.7,0,0.00,,---,0.00,VWS V14.00,2013-01-22 05:06:00,
2013-01-22 00:07:00,12.3,0.0,30.05,WSW,256,6.3,9.7,0,0.00,,---,0.00,VWS V14.00,2013-01-22 05:07:00,
2013-01-22 00:08:00,23.0,0.0,29.77,WNW,298,0.0,0.0,0,0.00,,---,0.00,VWS V14.00,2013-01-22 05:08:00,
2013-01-22 00:09:00,12.3,0.0,30.05,NW,308,0.0,9.7,0,0.00,,---,0.00,VWS V14.00,2013-01-22 05:09:00,
2013-01-22 00:13:00,22.9,0.0,29.76,WNW,298,0.0,0.0,0,0.00,,---,0.00,VWS V14.00,2013-01-22 05:13:00,
2013-01-22 00:18:00,22.7,0.0,29.76,WNW,298,0.0,0.0,0,0.00,,---,0.00,VWS V14.00,2013-01-22 05:18:00,
2013-01-22 00:23:00,22.9,0.0,29.76,WNW,298,0.0,0.0,0,0.00,,---,0.00,VWS V14.00,2013-01-22 05:23:00,
2013-01-22 00:28:00,23.1,0.0,29.76,WNW,298,0.0,0.0,0,0.00,,---,0.00,VWS V14.00,2013-01-22 05:28:00,
2013-01-22 00:33:00,23.1,0.0,29.76,WNW,287,0.0,6.1,0,0.00,,---,0.00,VWS V14.00,2013-01-22 05:33:00,
2013-01-22 00:38:00,22.9,0.0,29.76,WNW,287,0.0,0.0,0,0.00,,---,0.00,VWS V14.00,2013-01-22 05:38:00,
2013-01-22 00:43:00,22.7,0.0,29.75,WNW,287,0.0,0.0,0,0.00,,---,0.00,VWS V14.00,2013-01-22 05:43:00,
2013-01-22 00:48:00,22.6,0.0,29.74,WNW,287,0.0,0.0,0,0.00,,---,0.00,VWS V14.00,2013-01-22 05:48:00,
2013-01-22 00:53:00,22.3,0.0,29.74,North,359,0.0,7.4,0,0.00,,---,0.00,VWS V14.00,2013-01-22 05:53:00,
2013-01-22 00:58:00,22.3,0.0,29.74,North,3,0.0,7.7,0,0.00,,---,0.00,VWS V14.00,2013-01-22 05:58:00,
2013-01-22 01:03:00,22.4,0.0,29.74,North,3,4.3,4.3,0,0.00,,---,0.00,VWS V14.00,2013-01-22 06:03:00,
2013-01-22 01:08:00,22.4,0.0,29.75,NW,312,3.5,7.8,0,0.00,,---,0.00,VWS V14.00,2013-01-22 06:08:00,
2013-01-22 01:13:00,22.5,0.0,29.75,NW,318,7.3,7.3,0,0.00,,---,0.00,VWS V14.00,2013-01-22 06:13:00,
2013-01-22 01:18:00,22.5,0.0,29.75,NNW,329,0.0,7.7,0,0.00,,---,0.00,VWS V14.00,2013-01-22 06:18:00,
2013-01-22 01:23:00,22.4,0.0,29.74,North,6,0.0,6.5,0,0.00,,---,0.00,VWS V14.00,2013-01-22 06:23:00,
2013-01-22 01:28:00,22.4,0.0,29.74,NW,321,8.0,9.6,0,0.00,,---,0.00,VWS V14.00,2013-01-22 06:28:00,
2013-01-22 01:33:00,22.5,0.0,29.74,NW,311,6.2,10.3,0,0.00,,---,0.00,VWS V14.00,2013-01-22 06:33:00,
2013-01-22 01:38:00,22.3,0.0,29.75,West,281,5.0,10.6,0,0.00,,---,0.00,VWS V14.00,2013-01-22 06:38:00,
2013-01-22 01:43:00,22.5,0.0,29.75,NW,315,0.0,9.6,0,0.00,,---,0.00,VWS V14.00,2013-01-22 06:43:00,
2013-01-22 01:48:00,22.7,0.0,29.76,NW,309,0.0,7.8,0,0.00,,---,0.00,VWS V14.00,2013-01-22 06:48:00,
2013-01-22 01:53:00,22.7,0.0,29.76,WNW,301,6.1,6.6,0,0.00,,---,0.00,VWS V14.00,2013-01-22 06:53:00,
2013-01-22 01:58:00,22.6,0.0,29.76,North,6,0.0,10.1,0,0.00,,---,0.00,VWS V14.00,2013-01-22 06:58:00,
2013-01-22 02:03:00,22.6,0.0,29.75,NNW,332,0.0,9.1,0,0.00,,---,0.00,VWS V14.00,2013-01-22 07:03:00,
2013-01-22 02:08:00,22.6,0.0,29.75,WNW,290,0.0,8.4,0,0.00,,---,0.00,VWS V14.00,2013-01-22 07:08:00,
2013-01-22 02:13:00,22.6,0.0,29.75,North,8,6.3,7.9,0,0.00,,---,0.00,VWS V14.00,2013-01-22 07:13:00,
2013-01-22 02:18:00,22.5,0.0,29.75,NW,325,5.9,9.6,0,0.00,,---,0.00,VWS V14.00,2013-01-22 07:18:00,
2013-01-22 02:23:00,22.6,0.0,29.75,NNE,15,0.0,9.5,0,0.00,,---,0.00,VWS V14.00,2013-01-22 07:23:00,
2013-01-22 02:28:00,22.6,0.0,29.75,WNW,295,0.0,6.2,0,0.00,,---,0.00,VWS V14.00,2013-01-22 07:28:00,
2013-01-22 02:33:00,22.5,0.0,29.75,WNW,291,0.0,9.4,0,0.00,,---,0.00,VWS V14.00,2013-01-22 07:33:00,
2013-01-22 02:38:00,22.5,0.0,29.75,West,274,0.0,8.9,0,0.00,,---,0.00,VWS V14.00,2013-01-22 07:38:00,
2013-01-22 02:43:00,22.6,0.0,29.75,WNW,290,0.0,7.5,0,0.00,,---,0.00,VWS V14.00,2013-01-22 07:43:00,
2013-01-22 02:48:00,22.4,0.0,29.75,NW,326,0.0,10.0,0,0.00,,---,0.00,VWS V14.00,2013-01-22 07:48:00,
2013-01-22 02:53:00,22.6,0.0,29.74,North,359,0.0,8.3,0,0.00,,---,0.00,VWS V14.00,2013-01-22 07:53:00,
2013-01-22 02:58:00,22.3,0.0,29.74,WNW,300,3.2,9.6,0,0.00,,---,0.00,VWS V14.00,2013-01-22 07:58:00,
2013-01-22 03:03:00,22.3,0.0,29.74,NW,308,0.0,8.7,0,0.00,,---,0.00,VWS V14.00,2013-01-22 08:03:00,
2013-01-22 03:08:00,22.2,0.0,29.74,North,7,0.0,10.3,0,0.00,,---,0.00,VWS V14.00,2013-01-22 08:08:00,
2013-01-22 03:13:00,22.2,0.0,29.74,NW,307,4.5,4.5,0,0.00,,---,0.00,VWS V14.00,2013-01-22 08:13:00,
2013-01-22 03:18:00,22.1,0.0,29.74,WNW,290,0.0,9.6,0,0.00,,---,0.00,VWS V14.00,2013-01-22 08:18:00,
2013-01-22 03:23:00,22.1,0.0,29.74,NW,319,0.0,6.7,0,0.00,,---,0.00,VWS V14.00,2013-01-22 08:23:00,
2013-01-22 03:28:00,21.9,0.0,29.74,NW,314,4.5,11.9,0,0.00,,---,0.00,VWS V14.00,2013-01-22 08:28:00,
2013-01-22 03:33:00,21.9,0.0,29.73,NW,312,8.7,8.7,0,0.00,,---,0.00,VWS V14.00,2013-01-22 08:33:00,
2013-01-22 03:38:00,21.8,0.0,29.73,WNW,300,0.0,11.1,0,0.00,,---,0.00,VWS V14.00,2013-01-22 08:38:00,
2013-01-22 03:43:00,21.7,0.0,29.73,NW,323,8.2,10.3,0,0.00,,---,0.00,VWS V14.00,2013-01-22 08:43:00,
2013-01-22 03:48:00,21.6,0.0,29.73,NW,307,6.1,12.2,0,0.00,,---,0.00,VWS V14.00,2013-01-22 08:48:00,
2013-01-22 03:53:00,21.5,0.0,29.73,NNW,330,0.0,10.2,0,0.00,,---,0.00,VWS V14.00,2013-01-22 08:53:00,
2013-01-22 03:58:00,21.4,0.0,29.73,North,352,6.7,11.9,0,0.00,,---,0.00,VWS V14.00,2013-01-22 08:58:00,
2013-01-22 04:03:00,21.3,0.0,29.73,North,7,2.4,7.4,0,0.00,,---,0.00,VWS V14.00,2013-01-22 09:03:00,
2013-01-22 04:08:00,21.3,0.0,29.73,North,1,0.0,6.6,0,0.00,,---,0.00,VWS V14.00,2013-01-22 09:08:00,
2013-01-22 04:13:00,21.1,0.0,29.73,NNW,332,7.1,7.6,0,0.00,,---,0.00,VWS V14.00,2013-01-22 09:13:00,
2013-01-22 04:18:00,21.1,0.0,29.73,NNE,14,4.2,8.5,0,0.00,,---,0.00,VWS V14.00,2013-01-22 09:18:00,
2013-01-22 04:23:00,21.1,0.0,29.73,WNW,283,4.2,7.8,0,0.00,,---,0.00,VWS V14.00,2013-01-22 09:23:00,
2013-01-22 04:28:00,21.0,0.0,29.73,NW,323,4.7,10.1,0,0.00,,---,0.00,VWS V14.00,2013-01-22 09:28:00,
2013-01-22 04:33:00,21.0,0.0,29.73,WNW,295,3.2,6.5,0,0.00,,---,0.00,VWS V14.00,2013-01-22 09:33:00,
2013-01-22 04:38:00,21.0,0.0,29.73,NNW,335,5.5,9.9,0,0.00,,---,0.00,VWS V14.00,2013-01-22 09:38:00,
2013-01-22 04:43:00,21.1,0.0,29.73,NW,325,0.0,10.4,0,0.00,,---,0.00,VWS V14.00,2013-01-22 09:43:00,
2013-01-22 04:48:00,20.9,0.0,29.73,WNW,283,4.4,8.8,0,0.00,,---,0.00,VWS V14.00,2013-01-22 09:48:00,
2013-01-22 04:53:00,20.7,0.0,29.73,WSW,249,0.0,10.3,0,0.00,,---,0.00,VWS V14.00,2013-01-22 09:53:00,
2013-01-22 04:58:00,20.7,0.0,29.73,WNW,298,3.5,9.2,0,0.00,,---,0.00,VWS V14.00,2013-01-22 09:58:00,
2013-01-22 05:03:00,20.6,0.0,29.73,West,267,7.1,11.1,0,0.00,,---,0.00,VWS V14.00,2013-01-22 10:03:00,
2013-01-22 05:08:00,20.4,0.0,29.73,WNW,292,4.4,10.7,0,0.00,,---,0.00,VWS V14.00,2013-01-22 10:08:00,
2013-01-22 05:13:00,20.3,0.0,29.73,WNW,297,8.3,12.2,0,0.00,,---,0.00,VWS V14.00,2013-01-22 10:13:00,
2013-01-22 05:18:00,20.3,0.0,29.73,North,6,8.0,9.9,0,0.00,,---,0.00,VWS V14.00,2013-01-22 10:18:00,
2013-01-22 05:23:00,20.3,0.0,29.73,WNW,284,3.5,9.8,0,0.00,,---,0.00,VWS V14.00,2013-01-22 10:23:00,
2013-01-22 05:28:00,20.0,0.0,29.73,North,352,3.5,9.9,0,0.00,,---,0.00,VWS V14.00,2013-01-22 10:28:00,
2013-01-22 05:33:00,19.9,0.0,29.74,NE,45,4.6,10.3,0,0.00,,---,0.00,VWS V14.00,2013-01-22 10:33:00,
2013-01-22 05:38:00,19.7,0.0,29.74,NNW,333,2.7,7.5,0,0.00,,---,0.00,VWS V14.00,2013-01-22 10:38:00,
2013-01-22 05:43:00,19.5,0.0,29.74,NW,319,3.3,5.0,0,0.00,,---,0.00,VWS V14.00,2013-01-22 10:43:00,
2013-01-22 05:48:00,19.5,0.0,29.74,NW,326,0.0,6.4,0,0.00,,---,0.00,VWS V14.00,2013-01-22 10:48:00,
2013-01-22 05:53:00,19.7,0.0,29.74,WNW,290,6.1,9.9,0,0.00,,---,0.00,VWS V14.00,2013-01-22 10:53:00,
2013-01-22 05:58:00,19.6,0.0,29.74,WNW,287,3.3,9.5,0,0.00,,---,0.00,VWS V14.00,2013-01-22 10:58:00,
2013-01-22 06:03:00,19.5,0.0,29.74,NW,312,6.8,10.0,0,0.00,,---,0.00,VWS V14.00,2013-01-22 11:03:00,
2013-01-22 06:08:00,19.5,0.0,29.74,WNW,297,5.7,11.6,0,0.00,,---,0.00,VWS V14.00,2013-01-22 11:08:00,
2013-01-22 06:13:00,19.4,0.0,29.74,NW,308,8.9,12.0,0,0.00,,---,0.00,VWS V14.00,2013-01-22 11:13:00,
2013-01-22 06:18:00,19.2,0.0,29.74,West,266,4.6,12.8,0,0.00,,---,0.00,VWS V14.00,2013-01-22 11:18:00,
2013-01-22 06:23:00,19.1,0.0,29.74,NW,314,9.8,13.9,0,0.00,,---,0.00,VWS V14.00,2013-01-22 11:23:00,
2013-01-22 06:28:00,19.0,0.0,29.75,West,273,3.5,13.9,0,0.00,,---,0.00,VWS V14.00,2013-01-22 11:28:00,
2013-01-22 06:33:00,18.8,0.0,29.75,NW,307,0.0,12.6,0,0.00,,---,0.00,VWS V14.00,2013-01-22 11:33:00,
2013-01-22 06:38:00,18.8,0.0,29.75,WNW,290,7.8,12.6,0,0.00,,---,0.00,VWS V14.00,2013-01-22 11:38:00,
2013-01-22 06:43:00,18.6,0.0,29.76,WNW,298,8.6,13.9,0,0.00,,---,0.00,VWS V14.00,2013-01-22 11:43:00,
2013-01-22 06:48:00,18.6,0.0,29.76,NW,314,7.1,9.0,0,0.00,,---,0.00,VWS V14.00,2013-01-22 11:48:00,
2013-01-22 06:53:00,18.4,0.0,29.76,WNW,300,5.3,13.4,0,0.00,,---,0.00,VWS V14.00,2013-01-22 11:53:00,
2013-01-22 06:58:00,18.3,0.0,29.76,North,356,0.0,9.6,0,0.00,,---,0.00,VWS V14.00,2013-01-22 11:58:00,
2013-01-22 07:03:00,18.0,0.0,29.76,NE,52,3.3,10.6,0,0.00,,---,0.00,VWS V14.00,2013-01-22 12:03:00,
2013-01-22 07:08:00,17.9,0.0,29.76,NW,309,0.0,9.4,0,0.00,,---,0.00,VWS V14.00,2013-01-22 12:08:00,
2013-01-22 07:13:00,17.9,0.0,29.77,NW,314,5.9,9.6,0,0.00,,---,0.00,VWS V14.00,2013-01-22 12:13:00,
2013-01-22 07:18:00,18.1,0.0,29.77,NW,322,6.2,11.0,0,0.00,,---,0.00,VWS V14.00,2013-01-22 12:18:00,
2013-01-22 07:23:00,18.2,0.0,29.77,NNW,338,0.0,7.5,0,0.00,,---,0.00,VWS V14.00,2013-01-22 12:23:00,
2013-01-22 07:28:00,18.2,0.0,29.78,NW,322,0.0,7.6,0,0.00,,---,0.00,VWS V14.00,2013-01-22 12:28:00,
2013-01-22 07:33:00,17.8,0.0,29.78,NW,311,5.2,11.1,0,0.00,,---,0.00,VWS V14.00,2013-01-22 12:33:00,
2013-01-22 07:38:00,17.9,0.0,29.78,ENE,65,4.3,7.0,0,0.00,,---,0.00,VWS V14.00,2013-01-22 12:38:00,
2013-01-22 07:43:00,17.6,0.0,29.78,NNW,339,3.0,11.6,0,0.00,,---,0.00,VWS V14.00,2013-01-22 12:43:00,
2013-01-22 07:48:00,17.5,0.0,29.79,NNE,21,0.0,14.2,0,0.00,,---,0.00,VWS V14.00,2013-01-22 12:48:00,
2013-01-22 07:53:00,17.4,0.0,29.79,NW,309,5.9,13.0,0,0.00,,---,0.00,VWS V14.00,2013-01-22 12:53:00,
2013-01-22 07:58:00,17.4,0.0,29.79,NW,312,4.2,10.3,0,0.00,,---,0.00,VWS V14.00,2013-01-22 12:58:00,
2013-01-22 08:03:00,17.7,0.0,29.79,NNW,335,4.4,11.1,0,0.00,,---,0.00,VWS V14.00,2013-01-22 13:03:00,
2013-01-22 08:08:00,18.0,0.0,29.79,North,1,6.3,8.3,0,0.00,,---,0.00,VWS V14.00,2013-01-22 13:08:00,
2013-01-22 08:13:00,17.8,0.0,29.80,North,359,3.3,12.1,0,0.00,,---,0.00,VWS V14.00,2013-01-22 13:13:00,
2013-01-22 08:18:00,17.9,0.0,29.80,NW,321,5.8,11.1,0,0.00,,---,0.00,VWS V14.00,2013-01-22 13:18:00,
2013-01-22 08:23:00,17.9,0.0,29.80,North,359,3.4,13.5,0,0.00,,---,0.00,VWS V14.00,2013-01-22 13:23:00,
2013-01-22 08:28:00,18.0,0.0,29.80,NW,325,0.0,13.4,0,0.00,,---,0.00,VWS V14.00,2013-01-22 13:28:00,
2013-01-22 08:33:00,18.1,0.0,29.80,NNE,31,0.0,13.0,0,0.00,,---,0.00,VWS V14.00,2013-01-22 13:33:00,
2013-01-22 08:38:00,18.3,0.0,29.80,NW,321,8.1,12.2,0,0.00,,---,0.00,VWS V14.00,2013-01-22 13:38:00,
2013-01-22 08:43:00,18.3,0.0,29.80,WNW,294,11.6,15.3,0,0.00,,---,0.00,VWS V14.00,2013-01-22 13:43:00,
2013-01-22 08:48:00,18.3,0.0,29.81,WNW,295,6.3,12.9,0,0.00,,---,0.00,VWS V14.00,2013-01-22 13:48:00,
2013-01-22 08:53:00,19.0,0.0,29.81,NNW,332,4.5,12.7,0,0.00,,---,0.00,VWS V14.00,2013-01-22 13:53:00,
2013-01-22 08:58:00,19.1,0.0,29.81,NW,307,5.0,15.3,0,0.00,,---,0.00,VWS V14.00,2013-01-22 13:58:00,
2013-01-22 09:03:00,19.3,0.0,29.81,NW,323,5.1,12.5,0,0.00,,---,0.00,VWS V14.00,2013-01-22 14:03:00,
2013-01-22 09:08:00,19.5,0.0,29.82,NW,304,10.0,12.5,0,0.00,,---,0.00,VWS V14.00,2013-01-22 14:08:00,
2013-01-22 09:13:00,19.8,0.0,29.82,NW,316,8.6,13.0,0,0.00,,---,0.00,VWS V14.00,2013-01-22 14:13:00,
2013-01-22 09:18:00,20.0,0.0,29.82,NW,314,11.4,11.5,0,0.00,,---,0.00,VWS V14.00,2013-01-22 14:18:00,
2013-01-22 09:23:00,20.2,0.0,29.82,WNW,283,9.4,14.9,0,0.00,,---,0.00,VWS V14.00,2013-01-22 14:23:00,
2013-01-22 09:28:00,20.5,0.0,29.82,NW,305,8.1,11.9,0,0.00,,---,0.00,VWS V14.00,2013-01-22 14:28:00,
2013-01-22 09:33:00,20.7,0.0,29.82,WNW,288,4.8,16.5,0,0.00,,---,0.00,VWS V14.00,2013-01-22 14:33:00,
2013-01-22 09:38:00,20.8,0.0,29.82,WNW,302,12.9,14.7,0,0.00,,---,0.00,VWS V14.00,2013-01-22 14:38:00,
2013-01-22 09:43:00,21.2,0.0,29.82,NW,318,7.7,14.2,0,0.00,,---,0.00,VWS V14.00,2013-01-22 14:43:00,
2013-01-22 09:48:00,22.0,0.0,29.82,West,263,2.7,14.1,0,0.00,,---,0.00,VWS V14.00,2013-01-22 14:48:00,
2013-01-22 09:53:00,21.3,0.0,29.82,WNW,295,6.3,13.3,0,0.00,,---,0.00,VWS V14.00,2013-01-22 14:53:00,
2013-01-22 09:58:00,22.3,0.0,29.82,WNW,295,10.9,13.9,0,0.00,,---,0.00,VWS V14.00,2013-01-22 14:58:00,
2013-01-22 10:03:00,22.5,0.0,29.82,WNW,291,6.7,14.0,0,0.00,,---,0.00,VWS V14.00,2013-01-22 15:03:00,
2013-01-22 10:08:00,22.7,0.0,29.82,NNW,330,4.8,14.0,0,0.00,,---,0.00,VWS V14.00,2013-01-22 15:08:00,
2013-01-22 10:13:00,23.1,0.0,29.82,NNW,346,6.6,10.1,0,0.00,,---,0.00,VWS V14.00,2013-01-22 15:13:00,
2013-01-22 10:18:00,23.8,0.0,29.82,SW,217,3.5,9.3,0,0.00,,---,0.00,VWS V14.00,2013-01-22 15:18:00,
2013-01-22 10:23:00,24.5,0.0,29.82,NW,304,7.3,11.9,0,0.00,,---,0.00,VWS V14.00,2013-01-22 15:23:00,
2013-01-22 10:28:00,24.9,0.0,29.82,NNW,336,5.7,16.7,0,0.00,,---,0.00,VWS V14.00,2013-01-22 15:28:00,
2013-01-22 10:33:00,25.3,0.0,29.82,WNW,298,9.7,18.4,0,0.00,,---,0.00,VWS V14.00,2013-01-22 15:33:00,
2013-01-22 10:38:00,25.1,0.0,29.82,WNW,301,6.5,23.4,0,0.00,,---,0.00,VWS V14.00,2013-01-22 15:38:00,
2013-01-22 10:43:00,23.4,0.0,29.82,NW,321,15.7,18.6,0,0.00,,---,0.00,VWS V14.00,2013-01-22 15:43:00,
2013-01-22 10:48:00,23.4,0.0,29.82,WNW,301,23.1,23.1,0,0.00,,---,0.00,VWS V14.00,2013-01-22 15:48:00,
2013-01-22 10:53:00,24.1,0.0,29.82,NW,325,9.6,24.4,0,0.00,,---,0.00,VWS V14.00,2013-01-22 15:53:00,
2013-01-22 10:58:00,24.9,0.0,29.82,NW,316,12.9,25.1,0,0.00,,---,0.00,VWS V14.00,2013-01-22 15:58:00,
2013-01-22 11:03:00,25.8,0.0,29.82,NW,305,14.3,26.3,0,0.00,,---,0.00,VWS V14.00,2013-01-22 16:03:00,
2013-01-22 11:08:00,25.9,0.0,29.82,West,278,9.4,22.7,0,0.00,,---,0.00,VWS V14.00,2013-01-22 16:08:00,
2013-01-22 11:13:00,25.7,0.0,29.82,WNW,295,11.6,21.9,0,0.00,,---,0.00,VWS V14.00,2013-01-22 16:13:00,
2013-01-22 11:18:00,26.1,0.0,29.81,WNW,291,9.3,21.1,0,0.00,,---,0.00,VWS V14.00,2013-01-22 16:18:00,
2013-01-22 11:23:00,25.7,0.0,29.82,WSW,239,11.4,22.3,0,0.00,,---,0.00,VWS V14.00,2013-01-22 16:23:00,
2013-01-22 11:28:00,25.2,0.0,29.81,NW,314,8.7,15.9,0,0.00,,---,0.00,VWS V14.00,2013-01-22 16:28:00,
2013-01-22 11:33:00,26.1,0.0,29.81,WNW,301,8.5,16.8,0,0.00,,---,0.00,VWS V14.00,2013-01-22 16:33:00,
2013-01-22 11:38:00,24.3,0.0,29.81,NW,314,14.3,23.2,0,0.00,,---,0.00,VWS V14.00,2013-01-22 16:38:00,
2013-01-22 11:43:00,23.7,0.0,29.81,NW,315,18.2,23.4,0,0.00,,---,0.00,VWS V14.00,2013-01-22 16:43:00,
2013-01-22 11:48:00,23.7,0.0,29.81,West,276,11.8,20.9,0,0.00,,---,0.00,VWS V14.00,2013-01-22 16:48:00,
2013-01-22 11:53:00,24.9,0.0,29.81,WNW,288,13.5,21.2,0,0.00,,---,0.00,VWS V14.00,2013-01-22 16:53:00,
2013-01-22 11:58:00,26.0,0.0,29.81,West,269,11.2,22.5,0,0.00,,---,0.00,VWS V14.00,2013-01-22 16:58:00,
2013-01-22 12:03:00,26.1,0.0,29.81,West,270,14.7,18.2,0,0.00,,---,0.00,VWS V14.00,2013-01-22 17:03:00,
2013-01-22 12:08:00,25.5,0.0,29.81,WNW,291,13.4,24.0,0,0.00,,---,0.00,VWS V14.00,2013-01-22 17:08:00,
2013-01-22 12:13:00,25.9,0.0,29.81,West,274,7.3,20.3,0,0.00,,---,0.00,VWS V14.00,2013-01-22 17:13:00,
2013-01-22 12:18:00,25.8,0.0,29.81,SW,226,11.4,22.7,0,0.00,,---,0.00,VWS V14.00,2013-01-22 17:18:00,
2013-01-22 12:23:00,25.0,0.0,29.81,WNW,302,10.8,22.4,0,0.00,,---,0.00,VWS V14.00,2013-01-22 17:23:00,
2013-01-22 12:28:00,25.9,0.0,29.81,WNW,290,12.0,22.4,0,0.00,,---,0.00,VWS V14.00,2013-01-22 17:28:00,
2013-01-22 12:33:00,25.1,0.0,29.81,West,280,8.3,22.1,0,0.00,,---,0.00,VWS V14.00,2013-01-22 17:33:00,
2013-01-22 12:38:00,24.6,0.0,29.81,NW,305,6.6,18.5,0,0.00,,---,0.00,VWS V14.00,2013-01-22 17:38:00,
2013-01-22 12:43:00,25.6,0.0,29.81,WNW,284,9.3,17.8,0,0.00,,---,0.00,VWS V14.00,2013-01-22 17:43:00,
2013-01-22 12:48:00,26.1,0.0,29.80,WNW,294,0.0,16.8,0,0.00,,---,0.00,VWS V14.00,2013-01-22 17:48:00,
2013-01-22 12:53:00,26.1,0.0,29.80,NW,304,16.0,17.4,0,0.00,,---,0.00,VWS V14.00,2013-01-22 17:53:00,
2013-01-22 12:58:00,26.1,0.0,29.80,NW,312,11.6,23.9,0,0.00,,---,0.00,VWS V14.00,2013-01-22 17:58:00,
2013-01-22 13:03:00,26.1,0.0,29.81,NNW,335,10.1,21.0,0,0.00,,---,0.00,VWS V14.00,2013-01-22 18:03:00,
2013-01-22 13:08:00,26.2,0.0,29.81,NW,309,14.6,20.8,0,0.00,,---,0.00,VWS V14.00,2013-01-22 18:08:00,
2013-01-22 13:13:00,26.9,0.0,29.81,West,270,12.4,20.3,0,0.00,,---,0.00,VWS V14.00,2013-01-22 18:13:00,
2013-01-22 13:18:00,25.5,0.0,29.81,SW,218,5.3,18.1,0,0.00,,---,0.00,VWS V14.00,2013-01-22 18:18:00,
2013-01-22 13:23:00,24.3,0.0,29.81,SW,222,4.2,15.5,0,0.00,,---,0.00,VWS V14.00,2013-01-22 18:23:00,
2013-01-22 13:28:00,24.1,0.0,29.81,West,267,10.2,15.5,0,0.00,,---,0.00,VWS V14.00,2013-01-22 18:28:00,
2013-01-22 13:33:00,24.0,0.0,29.82,NW,308,7.1,18.8,0,0.00,,---,0.00,VWS V14.00,2013-01-22 18:33:00,
2013-01-22 13:38:00,23.9,0.0,29.82,WSW,248,14.0,18.6,0,0.00,,---,0.00,VWS V14.00,2013-01-22 18:38:00,
2013-01-22 13:43:00,24.4,0.0,29.82,NW,316,11.7,19.1,0,0.00,,---,0.00,VWS V14.00,2013-01-22 18:43:00,
2013-01-22 13:48:00,23.8,0.0,29.82,West,276,7.6,21.7,0,0.00,,---,0.00,VWS V14.00,2013-01-22 18:48:00,
2013-01-22 13:53:00,23.6,0.0,29.82,West,278,6.8,17.3,0,0.00,,---,0.00,VWS V14.00,2013-01-22 18:53:00,
2013-01-22 13:58:00,24.9,0.0,29.83,NW,323,13.5,21.6,0,0.00,,---,0.00,VWS V14.00,2013-01-22 18:58:00,
2013-01-22 14:03:00,25.3,0.0,29.83,WNW,302,5.3,19.6,0,0.00,,---,0.00,VWS V14.00,2013-01-22 19:03:00,
2013-01-22 14:08:00,25.1,0.0,29.83,WNW,284,12.1,18.4,0,0.00,,---,0.00,VWS V14.00,2013-01-22 19:08:00,
2013-01-22 14:13:00,25.7,0.0,29.84,WNW,297,0.0,15.5,0,0.00,,---,0.00,VWS V14.00,2013-01-22 19:13:00,
2013-01-22 14:18:00,26.2,0.0,29.84,NW,312,8.5,10.9,0,0.00,,---,0.00,VWS V14.00,2013-01-22 19:18:00,
2013-01-22 14:23:00,26.1,0.0,29.84,West,266,6.0,16.0,0,0.00,,---,0.00,VWS V14.00,2013-01-22 19:23:00,
2013-01-22 14:28:00,24.6,0.0,29.84,West,267,9.9,15.8,0,0.00,,---,0.00,VWS V14.00,2013-01-22 19:28:00,
2013-01-22 14:33:00,24.4,0.0,29.84,SSW,205,8.9,20.8,0,0.00,,---,0.00,VWS V14.00,2013-01-22 19:33:00,
2013-01-22 14:38:00,24.6,0.0,29.84,WSW,257,12.1,17.3,0,0.00,,---,0.00,VWS V14.00,2013-01-22 19:38:00,
2013-01-22 14:43:00,24.4,0.0,29.84,SW,233,3.5,15.7,0,0.00,,---,0.00,VWS V14.00,2013-01-22 19:43:00,
2013-01-22 14:48:00,24.7,0.0,29.85,SW,233,10.5,22.7,0,0.00,,---,0.00,VWS V14.00,2013-01-22 19:48:00,
2013-01-22 14:53:00,24.1,0.0,29.85,West,263,5.0,16.2,0,0.00,,---,0.00,VWS V14.00,2013-01-22 19:53:00,
2013-01-22 14:58:00,24.2,0.0,29.86,SSW,211,5.5,18.2,0,0.00,,---,0.00,VWS V14.00,2013-01-22 19:58:00,
2013-01-22 15:03:00,23.7,0.0,29.86,West,271,9.8,17.6,0,0.00,,---,0.00,VWS V14.00,2013-01-22 20:03:00,
2013-01-22 15:08:00,23.7,0.0,29.86,WNW,292,12.1,21.3,0,0.00,,---,0.00,VWS V14.00,2013-01-22 20:08:00,
2013-01-22 15:13:00,23.9,0.0,29.86,West,263,6.5,19.4,0,0.00,,---,0.00,VWS V14.00,2013-01-22 20:13:00,
2013-01-22 15:18:00,23.8,0.0,29.86,WNW,285,7.4,13.2,0,0.00,,---,0.00,VWS V14.00,2013-01-22 20:18:00,
2013-01-22 15:23:00,23.7,0.0,29.87,SSW,195,5.5,14.4,0,0.00,,---,0.00,VWS V14.00,2013-01-22 20:23:00,
2013-01-22 15:28:00,23.3,0.0,29.87,NW,322,6.8,15.0,0,0.00,,---,0.00,VWS V14.00,2013-01-22 20:28:00,
2013-01-22 15:33:00,23.5,0.0,29.87,West,264,5.0,14.0,0,0.00,,---,0.00,VWS V14.00,2013-01-22 20:33:00,
2013-01-22 15:38:00,23.1,0.0,29.87,WNW,287,7.9,18.1,0,0.00,,---,0.00,VWS V14.00,2013-01-22 20:38:00,
2013-01-22 15:43:00,22.7,0.0,29.88,WNW,292,6.3,19.9,0,0.00,,---,0.00,VWS V14.00,2013-01-22 20:43:00,
2013-01-22 15:48:00,22.4,0.0,29.88,WNW,300,5.8,15.2,0,0.00,,---,0.00,VWS V14.00,2013-01-22 20:48:00,
2013-01-22 15:53:00,22.2,0.0,29.88,NW,314,8.8,19.8,0,0.00,,---,0.00,VWS V14.00,2013-01-22 20:53:00,
2013-01-22 15:58:00,22.1,0.0,29.88,WNW,287,7.5,14.0,0,0.00,,---,0.00,VWS V14.00,2013-01-22 20:58:00,
2013-01-22 16:03:00,21.7,0.0,29.89,WNW,283,7.8,20.3,0,0.00,,---,0.00,VWS V14.00,2013-01-22 21:03:00,
2013-01-22 16:08:00,21.6,0.0,29.89,SW,221,5.3,23.5,0,0.00,,---,0.00,VWS V14.00,2013-01-22 21:08:00,
2013-01-22 16:13:00,21.5,0.0,29.89,WSW,238,7.3,16.0,0,0.00,,---,0.00,VWS V14.00,2013-01-22 21:13:00,
2013-01-22 16:18:00,21.4,0.0,29.89,NW,311,16.1,19.6,0,0.00,,---,0.00,VWS V14.00,2013-01-22 21:18:00,
2013-01-22 16:23:00,21.3,0.0,29.89,NW,304,18.8,22.3,0,0.00,,---,0.00,VWS V14.00,2013-01-22 21:23:00,
2013-01-22 16:28:00,21.2,0.0,29.90,WSW,255,6.3,21.7,0,0.00,,---,0.00,VWS V14.00,2013-01-22 21:28:00,
2013-01-22 16:31:00,21.1,0.0,29.90,NW,318,16.2,21.7,0,0.00,,---,0.00,VWS V14.00,2013-01-22 21:31:00,
2013-01-22 16:36:00,21.0,0.0,29.90,WNW,284,9.7,20.1,0,0.00,,---,0.00,VWS V14.00,2013-01-22 21:36:00,
2013-01-22 16:41:00,20.9,0.0,29.90,WSW,255,6.3,17.5,0,0.00,,---,0.00,VWS V14.00,2013-01-22 21:41:00,
2013-01-22 16:46:00,20.8,0.0,29.90,NW,312,5.5,19.1,0,0.00,,---,0.00,VWS V14.00,2013-01-22 21:46:00,
2013-01-22 16:51:00,20.6,0.0,29.90,WNW,297,5.4,15.1,0,0.00,,---,0.00,VWS V14.00,2013-01-22 21:51:00,
2013-01-22 16:56:00,20.5,0.0,29.91,NW,322,9.1,12.0,0,0.00,,---,0.00,VWS V14.00,2013-01-22 21:56:00,
2013-01-22 17:01:00,20.6,0.0,29.91,WNW,285,9.8,15.3,0,0.00,,---,0.00,VWS V14.00,2013-01-22 22:01:00,
2013-01-22 17:06:00,20.6,0.0,29.91,NNW,339,8.6,17.0,0,0.00,,---,0.00,VWS V14.00,2013-01-22 22:06:00,
2013-01-22 17:11:00,20.4,0.0,29.92,SSW,202,4.3,14.5,0,0.00,,---,0.00,VWS V14.00,2013-01-22 22:11:00,
2013-01-22 17:17:00,20.1,0.0,29.92,NW,305,12.1,14.4,0,0.00,,---,0.00,VWS V14.00,2013-01-22 22:17:00,
2013-01-22 17:22:00,20.0,0.0,29.92,SW,232,9.8,15.3,0,0.00,,---,0.00,VWS V14.00,2013-01-22 22:22:00,
2013-01-22 17:27:00,19.9,0.0,29.93,West,271,10.0,17.8,0,0.00,,---,0.00,VWS V14.00,2013-01-22 22:27:00,
2013-01-22 17:32:00,19.7,0.0,29.93,WSW,249,13.0,18.0,0,0.00,,---,0.00,VWS V14.00,2013-01-22 22:32:00,
2013-01-22 17:37:00,19.6,0.0,29.93,WNW,302,8.7,17.8,0,0.00,,---,0.00,VWS V14.00,2013-01-22 22:37:00,
2013-01-22 17:42:00,19.4,0.0,29.94,NW,309,9.0,10.9,0,0.00,,---,0.00,VWS V14.00,2013-01-22 22:42:00,
2013-01-22 17:47:00,19.4,0.0,29.94,WNW,287,5.5,12.6,0,0.00,,---,0.00,VWS V14.00,2013-01-22 22:47:00,
2013-01-22 17:52:00,19.3,0.0,29.94,WSW,252,5.5,11.1,0,0.00,,---,0.00,VWS V14.00,2013-01-22 22:52:00,
2013-01-22 17:57:00,19.3,0.0,29.95,West,259,7.5,10.7,0,0.00,,---,0.00,VWS V14.00,2013-01-22 22:57:00,
2013-01-22 18:02:00,19.1,0.0,29.95,West,259,7.0,12.0,0,0.00,,---,0.00,VWS V14.00,2013-01-22 23:02:00,
2013-01-22 18:07:00,18.9,0.0,29.95,WNW,302,10.1,18.6,0,0.00,,---,0.00,VWS V14.00,2013-01-22 23:07:00,
2013-01-22 18:12:00,18.4,0.0,29.95,WNW,284,8.3,16.7,0,0.00,,---,0.00,VWS V14.00,2013-01-22 23:12:00,
2013-01-22 18:17:00,18.4,0.0,29.96,West,273,9.6,17.2,0,0.00,,---,0.00,VWS V14.00,2013-01-22 23:17:00,
2013-01-22 18:22:00,18.3,0.0,29.96,NNW,328,5.0,12.7,0,0.00,,---,0.00,VWS V14.00,2013-01-22 23:22:00,
2013-01-22 18:27:00,18.2,0.0,29.96,NNW,330,7.0,11.5,0,0.00,,---,0.00,VWS V14.00,2013-01-22 23:27:00,
2013-01-22 18:32:00,18.0,0.0,29.96,NW,304,8.0,15.0,0,0.00,,---,0.00,VWS V14.00,2013-01-22 23:32:00,
2013-01-22 18:37:00,18.0,0.0,29.97,West,267,3.2,14.4,0,0.00,,---,0.00,VWS V14.00,2013-01-22 23:37:00,
2013-01-22 18:42:00,17.8,0.0,29.97,West,267,6.5,14.1,0,0.00,,---,0.00,VWS V14.00,2013-01-22 23:42:00,
2013-01-22 18:47:00,17.8,0.0,29.97,WNW,290,11.2,13.5,0,0.00,,---,0.00,VWS V14.00,2013-01-22 23:47:00,
2013-01-22 18:52:00,17.8,0.0,29.97,WNW,302,9.8,13.6,0,0.00,,---,0.00,VWS V14.00,2013-01-22 23:52:00,
2013-01-22 18:57:00,17.3,0.0,29.98,NW,308,12.5,18.6,0,0.00,,---,0.00,VWS V14.00,2013-01-22 23:57:00,
2013-01-22 19:02:00,16.9,0.0,29.98,WSW,246,7.9,19.9,0,0.00,,---,0.00,VWS V14.00,2013-01-23 00:02:00,
2013-01-22 19:07:00,17.1,0.0,29.98,SW,231,3.2,19.8,0,0.00,,---,0.00,VWS V14.00,2013-01-23 00:07:00,
2013-01-22 19:12:00,17.1,0.0,29.98,WNW,283,5.5,13.1,0,0.00,,---,0.00,VWS V14.00,2013-01-23 00:12:00,
2013-01-22 19:17:00,17.1,0.0,29.98,WNW,291,11.4,13.9,0,0.00,,---,0.00,VWS V14.00,2013-01-23 00:17:00,
2013-01-22 19:22:00,17.0,0.0,29.99,WNW,287,4.7,12.3,0,0.00,,---,0.00,VWS V14.00,2013-01-23 00:22:00,
2013-01-22 19:27:00,17.0,0.0,29.99,West,273,0.0,15.5,0,0.00,,---,0.00,VWS V14.00,2013-01-23 00:27:00,
2013-01-22 19:32:00,16.9,0.0,29.99,WNW,290,8.6,13.4,0,0.00,,---,0.00,VWS V14.00,2013-01-23 00:32:00,
2013-01-22 19:37:00,16.7,0.0,29.99,WNW,295,6.1,14.5,0,0.00,,---,0.00,VWS V14.00,2013-01-23 00:37:00,
2013-01-22 19:42:00,16.7,0.0,29.99,West,274,5.8,13.5,0,0.00,,---,0.00,VWS V14.00,2013-01-23 00:42:00,
2013-01-22 19:47:00,16.7,0.0,29.99,West,260,4.3,12.5,0,0.00,,---,0.00,VWS V14.00,2013-01-23 00:47:00,
2013-01-22 19:52:00,16.6,0.0,30.00,West,266,6.6,12.8,0,0.00,,---,0.00,VWS V14.00,2013-01-23 00:52:00,
2013-01-22 19:57:00,16.6,0.0,30.00,WSW,250,8.1,15.5,0,0.00,,---,0.00,VWS V14.00,2013-01-23 00:57:00,
2013-01-22 20:02:00,16.3,0.0,30.00,WNW,291,7.6,18.6,0,0.00,,---,0.00,VWS V14.00,2013-01-23 01:02:00,
2013-01-22 20:07:00,16.2,0.0,30.00,WSW,256,9.6,16.0,0,0.00,,---,0.00,VWS V14.00,2013-01-23 01:07:00,
2013-01-22 20:13:00,16.0,0.0,30.00,WNW,290,13.4,15.7,0,0.00,,---,0.00,VWS V14.00,2013-01-23 01:13:00,
2013-01-22 20:18:00,15.9,0.0,30.00,WNW,287,9.9,15.6,0,0.00,,---,0.00,VWS V14.00,2013-01-23 01:18:00,
2013-01-22 20:23:00,16.0,0.0,30.00,West,270,5.2,11.9,0,0.00,,---,0.00,VWS V14.00,2013-01-23 01:23:00,
2013-01-22 20:28:00,15.8,0.0,30.00,West,277,9.2,15.2,0,0.00,,---,0.00,VWS V14.00,2013-01-23 01:28:00,
2013-01-22 20:33:00,15.9,0.0,30.01,NW,305,12.3,14.9,0,0.00,,---,0.00,VWS V14.00,2013-01-23 01:33:00,
2013-01-22 20:38:00,15.9,0.0,30.01,NNW,329,4.8,14.7,0,0.00,,---,0.00,VWS V14.00,2013-01-23 01:38:00,
2013-01-22 20:43:00,15.8,0.0,30.01,NNW,328,8.9,13.4,0,0.00,,---,0.00,VWS V14.00,2013-01-23 01:43:00,
2013-01-22 20:48:00,15.8,0.0,30.01,NW,321,8.5,12.1,0,0.00,,---,0.00,VWS V14.00,2013-01-23 01:48:00,
2013-01-22 20:53:00,15.6,0.0,30.01,NNW,328,8.5,16.5,0,0.00,,---,0.00,VWS V14.00,2013-01-23 01:53:00,
2013-01-22 20:58:00,15.5,0.0,30.01,WNW,283,8.3,20.9,0,0.00,,---,0.00,VWS V14.00,2013-01-23 01:58:00,
2013-01-22 21:03:00,15.4,0.0,30.01,WNW,294,6.5,15.7,0,0.00,,---,0.00,VWS V14.00,2013-01-23 02:03:00,
2013-01-22 21:08:00,15.5,0.0,30.01,WNW,284,5.9,16.0,0,0.00,,---,0.00,VWS V14.00,2013-01-23 02:08:00,
2013-01-22 21:13:00,15.2,0.0,30.01,SW,225,2.7,14.0,0,0.00,,---,0.00,VWS V14.00,2013-01-23 02:13:00,
2013-01-22 21:18:00,15.2,0.0,30.01,NNW,338,3.3,13.9,0,0.00,,---,0.00,VWS V14.00,2013-01-23 02:18:00,
2013-01-22 21:23:00,15.0,0.0,30.02,NW,321,7.5,15.7,0,0.00,,---,0.00,VWS V14.00,2013-01-23 02:23:00,
2013-01-22 21:28:00,14.8,0.0,30.01,West,260,5.7,13.0,0,0.00,,---,0.00,VWS V14.00,2013-01-23 02:28:00,
2013-01-22 21:33:00,14.7,0.0,30.02,West,277,9.6,12.8,0,0.00,,---,0.00,VWS V14.00,2013-01-23 02:33:00,
2013-01-22 21:38:00,14.7,0.0,30.02,WNW,290,5.5,13.9,0,0.00,,---,0.00,VWS V14.00,2013-01-23 02:38:00,
2013-01-22 21:43:00,14.5,0.0,30.02,NW,305,9.8,14.8,0,0.00,,---,0.00,VWS V14.00,2013-01-23 02:43:00,
2013-01-22 21:48:00,14.3,0.0,30.02,NNW,328,6.1,13.1,0,0.00,,---,0.00,VWS V14.00,2013-01-23 02:48:00,
2013-01-22 21:53:00,14.2,0.0,30.02,WNW,285,0.0,12.2,0,0.00,,---,0.00,VWS V14.00,2013-01-23 02:53:00,
2013-01-22 21:58:00,14.1,0.0,30.02,WNW,291,3.4,12.9,0,0.00,,---,0.00,VWS V14.00,2013-01-23 02:58:00,
2013-01-22 22:03:00,14.0,0.0,30.02,NW,325,4.3,10.1,0,0.00,,---,0.00,VWS V14.00,2013-01-23 03:03:00,
2013-01-22 22:08:00,13.9,0.0,30.03,WNW,284,5.8,11.3,0,0.00,,---,0.00,VWS V14.00,2013-01-23 03:08:00,
2013-01-22 22:13:00,13.7,0.0,30.03,WNW,291,6.0,7.8,0,0.00,,---,0.00,VWS V14.00,2013-01-23 03:13:00,
2013-01-22 22:18:00,13.6,0.0,30.03,WNW,291,6.9,9.9,0,0.00,,---,0.00,VWS V14.00,2013-01-23 03:18:00,
2013-01-22 22:23:00,13.8,0.0,30.03,West,273,4.2,11.2,0,0.00,,---,0.00,VWS V14.00,2013-01-23 03:23:00,
2013-01-22 22:28:00,13.7,0.0,30.04,WNW,285,5.4,14.5,0,0.00,,---,0.00,VWS V14.00,2013-01-23 03:28:00,
2013-01-22 22:33:00,13.6,0.0,30.04,WNW,290,6.6,11.7,0,0.00,,---,0.00,VWS V14.00,2013-01-23 03:33:00,
2013-01-22 22:38:00,13.5,0.0,30.04,West,263,4.9,10.4,0,0.00,,---,0.00,VWS V14.00,2013-01-23 03:38:00,
2013-01-22 22:43:00,13.4,0.0,30.04,WNW,294,6.6,8.2,0,0.00,,---,0.00,VWS V14.00,2013-01-23 03:43:00,
2013-01-22 22:48:00,13.4,0.0,30.04,West,267,3.2,9.3,0,0.00,,---,0.00,VWS V14.00,2013-01-23 03:48:00,
2013-01-22 22:53:00,13.3,0.0,30.04,NW,309,0.0,8.2,0,0.00,,---,0.00,VWS V14.00,2013-01-23 03:53:00,
2013-01-22 22:58:00,13.2,0.0,30.04,NW,309,2.7,11.2,0,0.00,,---,0.00,VWS V14.00,2013-01-23 03:58:00,
2013-01-22 23:03:00,13.1,0.0,30.04,West,271,6.9,10.5,0,0.00,,---,0.00,VWS V14.00,2013-01-23 04:03:00,
2013-01-22 23:08:00,13.1,0.0,30.05,WNW,291,3.2,9.1,0,0.00,,---,0.00,VWS V14.00,2013-01-23 04:08:00,
2013-01-22 23:13:00,12.9,0.0,30.05,WNW,285,3.5,9.7,0,0.00,,---,0.00,VWS V14.00,2013-01-23 04:13:00,
2013-01-22 23:18:00,12.7,0.0,30.05,West,280,6.8,8.0,0,0.00,,---,0.00,VWS V14.00,2013-01-23 04:18:00,
2013-01-22 23:23:00,12.7,0.0,30.05,WNW,283,6.7,9.0,0,0.00,,---,0.00,VWS V14.00,2013-01-23 04:23:00,
2013-01-22 23:28:00,12.6,0.0,30.05,West,266,5.8,9.6,0,0.00,,---,0.00,VWS V14.00,2013-01-23 04:28:00,
2013-01-22 23:33:00,12.5,0.0,30.05,WNW,283,4.7,11.8,0,0.00,,---,0.00,VWS V14.00,2013-01-23 04:33:00,
2013-01-22 23:38:00,12.5,0.0,30.05,NW,308,4.2,8.5,0,0.00,,---,0.00,VWS V14.00,2013-01-23 04:38:00,
2013-01-22 23:43:00,12.6,0.0,30.05,WNW,285,6.4,11.2,0,0.00,,---,0.00,VWS V14.00,2013-01-23 04:43:00,
2013-01-22 23:48:00,12.6,0.0,30.05,West,280,7.3,12.2,0,0.00,,---,0.00,VWS V14.00,2013-01-23 04:48:00,